Main page
METAR-TAF:

METAR-TAF

Airports :

Malabo, Equatorial Guinea

Malabo International Airport

latitude: 03-45-18N, longitude: 08-42-31E, elevation: 23 m

Current weather observation

The report was made 59 minutes ago, at 11:00 UTC
Wind 5 kt from the West/Southwest
Temperature 28°C
Humidity 79%
Pressure 1013 hPa
Visibility 10 km or more
Scattered clouds at a height of 800 ft
Few clouds at a height of 2000 ft, Cumulonimbus.
Broken clouds at a height of 6000 ft

METAR: FGSL 261100Z 24005KT 9999 SCT008 FEW020CB BKN060 28/24 Q1013 NOSIG

Time: 12:59 (11:59 UTC)


TAF: missing

Weather observations and forecasts of more than 4000 airports (METAR and TAF reports).

The available stations are represented by yellow and red dots on the map.

Hover mouse over dot to see the name of the station.

Then click to see weather observations and forecasts.

To change the map : click on the green buttons with a black cross to zoom in, on the green button with a dash to zoom out, or on the green arrows for adjacent maps.


METAR-TAF: